Weather observations for the past three days for
Detroit/Grosse Ile, Grosse Ile Airport
Imperial (Metric)
Date Time (edt) Wind (mph) Vis. (mi.) Weather Sky Cond. Temperature (ºF) Relative Humidity Wind Chill (°F) Heat Index (°F) Pressure Precipitation (in)
Air Dwpt 6 hour altimeter (in) sea level (mb) 1 hr 3 hr 6 hr
Max. Min.
10 15:55 S 12 10.00 Partly Cloudy SCT085 57.2 37.4 48% 30.06 0.0
10 15:35 S 9 10.00 Mostly Cloudy BKN085 59 41 51% 30.06 0.0
10 15:15 S 12 10.00 Overcast OVC085 57.2 41 55% 30.06 0.0
10 14:55 S 10 10.00 Overcast OVC085 55.4 41 59% 30.06 0.0
10 14:35 S 9 10.00 Mostly Cloudy BKN085 59 30.2 34% 30.06 0.0
10 14:15 W 8 10.00 Partly Cloudy SCT085 60.8 28.4 29% 30.05 0.0
10 13:55 SW 7 10.00 Fair CLR 60.8 28.4 61.2 47.1 29% 30.05 0.0
10 13:35 NW 16 G 20 10.00 Fair CLR 60.8 26.6 27% 30.05 0.0
10 13:15 NW 15 G 21 10.00 Fair CLR 59 28.4 31% 30.05 0.0
10 12:55 N 14 G 18 10.00 Fair CLR 59 28.4 31% 30.06 0.0
10 12:35 NW 12 G 17 10.00 Fair CLR 59 28.4 31% 30.06 0.0
10 12:15 Vrbl 3 10.00 Fair CLR 59 28.4 31% 30.06 0.0
10 11:55 NW 10 10.00 Fair CLR 57.2 28.4 33% 30.05 0.0
10 11:35 Vrbl 3 10.00 Fair CLR 55.4 30.2 38% 30.05 0.0
10 11:15 Vrbl 2 10.00 Fair CLR 53.6 32 44% 30.05 0.0
10 10:55 Vrbl 3 10.00 Fair CLR 53.6 32 44% 30.04 0.0
10 10:35 Vrbl 3 10.00 Fair CLR 53.6 33.8 47% 30.03 0.0
10 10:15 Vrbl 3 10.00 Fair CLR 51.8 33.8 50% 30.03 0.0
10 09:55 Vrbl 2 10.00 Fair CLR 51.8 32 47% 30.03 0.0
10 09:35 Vrbl 5 10.00 Fair CLR 51.8 30.2 44% 30.03 0.0
10 09:15 N 5 10.00 Fair CLR 51.8 30.2 44% 30.03 0.0
10 08:55 NW 3 10.00 Fair CLR 50 33.8 54% 30.02 0.0
10 08:35 NW 6 10.00 Fair CLR 50 33.8 54% 48 30.02 0.0
10 08:15 N 5 10.00 Fair CLR 48.2 35.6 62% 47 30.01 0.0
10 07:55 Vrbl 3 10.00 Fair CLR 48.2 37.4 52.9 40.6 66% 30.01 0.0
10 07:35 NW 2 10.00 Fair CLR 46.4 41 82% 30 0.0
10 07:15 NW 2 10.00 Fair CLR 44.6 39.2 81% 29.98 0.0
10 06:55 NW 2 10.00 Fair CLR 42.8 39.2 87% 29.97 0.0
10 06:35 NW 3 10.00 Fair CLR 41 37.4 87% 29.96 0.0
10 06:15 N 5 10.00 Fair CLR 42.8 37.4 81% 41 29.96 0.0
10 05:55 N 6 10.00 Fair CLR 42.8 37.4 81% 40 29.95 0.0
10 05:35 NE 8 10.00 Fair CLR 44.6 37.4 76% 41 29.95 0.0
10 05:15 NE 8 10.00 Fair CLR 44.6 37.4 76% 41 29.94 0.0
10 04:55 NE 9 10.00 Fair CLR 44.6 37.4 76% 40 29.93 0.0
10 04:35 NE 8 10.00 Fair CLR 46.4 39.2 76% 43 29.91 0.0
10 04:15 NE 8 10.00 A Few Clouds FEW090 48.2 39.2 71% 45 29.9 0.0
10 03:55 NE 12 10.00 Mostly Cloudy BKN100 50 35.6 58% 46 29.88 0.0
10 03:35 N 5 10.00 Mostly Cloudy BKN100 50 35.6 58% 49 29.86 0.0
10 03:15 N 6 10.00 Partly Cloudy SCT100 51.8 35.6 54% 29.85 0.0
10 02:55 N 7 10.00 Overcast OVC100 51.8 35.6 54% 29.85 0.0
10 02:35 N 9 10.00 Mostly Cloudy BKN100 51.8 37.4 58% 29.84 0.0
10 02:15 NE 8 10.00 Partly Cloudy SCT100 51.8 39.2 62% 29.84 0.0
10 01:55 N 7 10.00 Mostly Cloudy BKN100 53.6 39.2 67.8 50.4 58% 29.83 0.0
10 01:35 NE 8 10.00 Mostly Cloudy BKN100 53.6 39.2 58% 29.83 0.0
10 01:15 NE 8 10.00 Partly Cloudy SCT100 51.8 39.2 62% 29.82 0.0
10 00:55 NW 7 10.00 Partly Cloudy SCT110 55.4 37.4 51% 29.8 0.0
10 00:35 N 8 10.00 Mostly Cloudy BKN100 57.2 37.4 48% 29.79 0.0
10 00:15 N 12 10.00 Mostly Cloudy BKN100 59 35.6 42% 29.78 0.0
09 23:55 N 10 10.00 Overcast OVC095 59 37.4 45% 29.78 0.0
09 23:35 N 12 10.00 Mostly Cloudy BKN085 BKN120 60.8 37.4 42% 29.77 0.0
09 23:15 N 14 G 20 10.00 Mostly Cloudy BKN085 BKN120 60.8 39.2 45% 29.75 0.0
09 22:55 NW 13 10.00 Partly Cloudy FEW075 SCT110 62.6 41 45% 29.74 0.0
09 22:35 N 14 G 21 10.00 Partly Cloudy FEW070 SCT080 SCT120 60.8 42.8 52% 29.73 0.0
09 22:15 NW 3 10.00 Mostly Cloudy FEW070 BKN080 BKN120 59 48.2 68% 29.7 0.0
09 21:55 W 2 10.00 Partly Cloudy SCT080 SCT120 62.6 48.2 60% 29.69 0.0
09 21:35 SW 3 6.00 Mostly Cloudy with Haze BKN090 BKN110 62.6 46.4 56% 29.68 0.0
09 21:15 SW 5 10.00 Mostly Cloudy BKN100 BKN120 62.6 44.6 52% 29.67 0.0
09 20:55 SW 6 10.00 Mostly Cloudy BKN100 BKN120 64.4 39.2 40% 29.66 0.0
09 20:35 W 10 10.00 Mostly Cloudy BKN100 64.4 37.4 37% 29.65 0.0
09 20:15 W 12 10.00 Partly Cloudy SCT100 66.2 35.6 32% 29.65 0.0
09 19:55 NW 12 G 22 10.00 A Few Clouds FEW100 68 35.6 71.2 61.2 30% 29.64 0.0
09 19:35 NW 16 G 21 10.00 A Few Clouds FEW100 68 35.6 30% 29.64 0.0
09 19:15 W 17 G 26 10.00 Partly Cloudy SCT100 68 37.4 33% 29.63 0.0
09 18:55 W 17 10.00 Mostly Cloudy BKN090 BKN110 69.8 41 35% 29.63 0.0
09 18:35 W 13 10.00 Partly Cloudy SCT090 68 46.4 46% 29.62 0.0
09 18:15 W 14 G 18 10.00 Fair CLR 68 50 53% 29.61 0.0
09 17:55 W 9 10.00 Fair CLR 68 50 53% 29.61 0.0
09 17:35 W 10 G 17 10.00 A Few Clouds FEW120 66.2 50 56% 29.6 0.0
09 17:15 W 8 10.00 Partly Cloudy SCT120 64.4 50 60% 29.61 0.0
09 16:55 W 10 10.00 Light Rain SCT060 SCT075 BKN090 62.6 48.2 60% 29.61 0.0 0.01
09 16:35 W 23 G 40 9.00 Light Rain and Breezy BKN060 BKN080 OVC100 62.6 48.2 60% 29.61 0.0
09 16:15 W 21 G 28 10.00 Overcast and Breezy SCT065 SCT080 OVC095 68 50 53% 29.59 0.0
09 15:55 SW 18 G 23 10.00 Mostly Cloudy BKN060 BKN095 BKN120 69.8 51.8 53% 29.59 0.0
09 15:35 SW 21 G 26 10.00 Light Rain and Breezy BKN060 BKN070 OVC085 66.2 51.8 60% 29.59 0.0
09 15:15 SW 16 G 30 10.00 Mostly Cloudy SCT060 BKN070 BKN090 69.8 48.2 46% 29.59 0.0
09 14:55 SW 15 G 23 10.00 Mostly Cloudy SCT060 SCT070 BKN085 69.8 50 50% 29.59 0.0
09 14:35 SW 17 G 24 10.00 A Few Clouds FEW060 FEW120 66.2 53.6 64% 29.6 0.0
09 14:15 S 21 G 26 10.00 Partly Cloudy and Breezy FEW085 SCT120 64.4 53.6 68% 29.61 0.0
09 13:55 S 21 G 28 10.00 Mostly Cloudy and Breezy BKN085 BKN110 62.6 53.6 63.7 52.9 73% 29.62 0.0
09 13:35 S 20 G 23 10.00 Partly Cloudy FEW075 SCT090 SCT110 62.6 53.6 73% 29.62 0.0
09 13:15 S 20 G 25 10.00 Light Rain FEW075 SCT090 SCT120 60.8 53.6 77% 29.63 0.0
09 12:55 S 18 10.00 Partly Cloudy FEW100 SCT120 60.8 53.6 77% 29.63 0.0
09 12:35 S 16 10.00 Mostly Cloudy FEW080 SCT100 BKN120 59 53.6 82% 29.64 0.0
09 12:15 S 18 10.00 Partly Cloudy SCT110 59 53.6 82% 29.64 0.0
09 11:55 S 17 10.00 Fair CLR 59 53.6 82% 29.64 0.0
09 11:35 S 17 10.00 Partly Cloudy SCT110 59 53.6 82% 29.65 0.0
09 11:15 S 15 10.00 Mostly Cloudy BKN100 59 53.6 82% 29.66 0.0
09 10:55 S 16 10.00 A Few Clouds FEW100 59 53.6 82% 29.66 0.0
09 10:35 S 16 10.00 Partly Cloudy SCT110 59 53.6 82% 29.67 0.0
09 10:15 S 12 10.00 Mostly Cloudy BKN110 57.2 53.6 88% 29.68 0.0
09 09:55 SW 8 10.00 Partly Cloudy SCT120 59 53.6 82% 29.68 0.0
09 09:35 SW 8 10.00 Partly Cloudy SCT008 57.2 51.8 82% 29.68 0.0
09 09:15 SW 9 10.00 Overcast OVC008 55.4 51.8 88% 29.68 0.0
09 08:55 SW 7 10.00 Overcast OVC008 53.6 51.8 94% 29.69 0.0
09 08:35 SW 9 8.00 Overcast OVC006 53.6 51.8 94% 29.69 0.0
09 08:15 SW 8 7.00 Fog/Mist OVC006 53.6 51.8 94% 29.69 0.0
09 07:55 W 9 7.00 Fog/Mist OVC006 53.6 51.8 53.1 50 94% 29.7 0.0
09 07:35 W 6 5.00 Fog/Mist OVC004 51.8 51.8 100% 29.69 0.0
09 07:15 SW 8 4.00 Fog/Mist OVC004 51.8 51.8 100% 29.7 0.0
09 06:55 SW 8 5.00 Fog/Mist OVC004 51.8 51.8 100% 29.7 0.0
09 06:35 SW 8 3.00 Fog/Mist OVC002 51.8 51.8 100% 29.7 0.0
09 06:15 SW 9 2.00 Fog/Mist OVC002 51.8 51.8 100% 29.69 0.0
09 05:55 SW 7 2.50 Fog/Mist OVC002 51.8 51.8 100% 29.69 0.0
09 05:35 SW 7 3.00 Fog/Mist OVC002 51.8 51.8 100% 29.69 0.0
09 05:15 SW 6 7.00 Fog/Mist BKN004 51.8 51.8 100% 29.69 0.0
09 04:55 SW 8 10.00 Fair CLR 51.8 51.8 100% 29.7 0.0
09 04:35 SW 7 10.00 Fair CLR 51.8 50 94% 29.7 0.0
09 04:15 SW 8 10.00 Fair CLR 50 50 100% 47 29.71 0.0
09 03:55 S 7 10.00 Fair CLR 50 50 100% 48 29.71 0.0
09 03:35 S 6 10.00 Fair CLR 50 50 100% 48 29.71 0.0
09 03:15 S 6 10.00 Fair CLR 50 50 100% 48 29.72 0.0
09 02:55 SW 5 10.00 Fair CLR 51.8 50 94% 29.72 0.0
09 02:35 S 6 10.00 Partly Cloudy SCT100 51.8 50 94% 29.73 0.0
09 02:15 S 6 10.00 Overcast OVC100 51.8 50 94% 29.73 0.0
09 01:55 S 8 10.00 Overcast OVC100 53.6 50 56.7 53.1 88% 29.74 0.0
09 01:35 W 6 10.00 Mostly Cloudy FEW085 BKN110 53.6 50 88% 29.73 0.0
09 01:15 W 6 10.00 Overcast OVC085 53.6 50 88% 29.74 0.0
09 00:55 W 5 10.00 Overcast OVC085 55.4 50 82% 29.74 0.0
09 00:35 SW 9 10.00 Overcast OVC085 55.4 50 82% 29.74 0.0
09 00:15 SW 9 10.00 Overcast OVC085 55.4 50 82% 29.75 0.0
08 23:55 W 6 10.00 Overcast OVC095 53.6 50 88% 29.76 0.0
08 23:35 SW 3 10.00 Mostly Cloudy BKN095 53.6 50 88% 29.76 0.0
08 23:15 SW 6 10.00 Fair CLR 53.6 50 88% 29.76 0.0
08 22:55 SW 6 10.00 Fair CLR 53.6 50 88% 29.76 0.0
08 22:35 SW 5 10.00 Fair CLR 53.6 50 88% 29.76 0.0
08 22:15 SW 7 10.00 Fair CLR 53.6 50 88% 29.76 0.0
08 21:55 SW 8 10.00 Fair CLR 55.4 50 82% 29.76 0.0
08 21:35 SW 9 10.00 Fair CLR 55.4 48.2 77% 29.76 0.0
08 21:15 SW 9 10.00 Fair CLR 55.4 50 82% 29.75 0.0
08 20:55 S 13 10.00 Fair CLR 55.4 50 82% 29.74 0.0
08 20:35 S 16 G 21 10.00 Fair CLR 57.2 50 77% 29.74 0.0
08 20:15 S 14 10.00 Fair CLR 55.4 51.8 88% 29.74 0.0
08 19:55 S 16 10.00 Fair CLR 55.4 51.8 57.9 54.9 88% 29.74 0.0
08 19:35 S 20 10.00 Fair CLR 57.2 50 77% 29.73 0.0
08 19:15 S 14 10.00 A Few Clouds FEW047 FEW060 57.2 50 77% 29.73 0.0
08 18:55 S 13 10.00 A Few Clouds FEW060 57.2 50 77% 29.73 0.0
08 18:35 S 12 10.00 Fair CLR 57.2 50 77% 29.74 0.0
08 18:15 S 12 10.00 Fair CLR 57.2 51.8 82% 29.75 0.0
08 17:55 S 9 10.00 Fair CLR 57.2 51.8 82% 29.75 0.0
08 17:35 SE 13 10.00 Fair CLR 57.2 50 77% 29.76 0.0
08 17:15 SE 13 10.00 Fair CLR 55.4 50 82% 29.76 0.0
08 16:55 SE 13 10.00 A Few Clouds FEW110 57.2 50 77% 29.77 0.0
08 16:35 SE 12 10.00 A Few Clouds FEW110 57.2 50 77% 29.77 0.0
08 16:15 S 14 10.00 A Few Clouds FEW070 FEW100 57.2 48.2 72% 29.78 0.0
08 15:55 SE 13 10.00 Partly Cloudy FEW070 SCT100 57.2 48.2 72% 29.79 0.0
08 15:35 SE 12 10.00 Mostly Cloudy SCT060 SCT070 BKN100 57.2 48.2 72% 29.8 0.0
08 15:15 S 12 G 18 10.00 Mostly Cloudy SCT065 BKN100 55.4 46.4 72% 29.81 0.0
08 14:55 S 13 10.00 Fair CLR 57.2 46.4 67% 29.82 0.0
08 14:35 SE 12 10.00 Fair CLR 55.4 44.6 67% 29.82 0.0
08 14:15 S 12 10.00 Fair CLR 57.2 44.6 63% 29.83 0.0
08 13:55 S 10 10.00 Fair CLR 55.4 44.6 56.7 46.4 67% 29.83 0.0
08 13:35 S 9 10.00 Fair CLR 55.4 44.6 67% 29.85 0.0
08 13:15 S 13 10.00 Fair CLR 55.4 44.6 67% 29.85 0.0
08 12:55 S 13 10.00 Fair CLR 55.4 44.6 67% 29.87 0.0
08 12:35 S 13 10.00 Fair CLR 55.4 44.6 67% 29.87 0.0
08 12:15 S 10 10.00 Fair CLR 55.4 42.8 63% 29.88 0.0
08 11:55 S 7 10.00 Fair CLR 55.4 37.4 51% 29.88 0.0
08 11:35 E 6 10.00 Fair CLR 55.4 37.4 51% 29.87 0.0
08 11:15 Vrbl 5 10.00 Fair CLR 55.4 41 59% 29.88 0.0
08 10:55 SE 6 10.00 Fair CLR 53.6 42.8 67% 29.88 0.0
08 10:35 Vrbl 6 10.00 Fair CLR 51.8 42.8 72% 29.89 0.0
08 10:15 SE 5 10.00 Fair CLR 51.8 42.8 72% 29.89 0.0
08 09:55 S 5 10.00 Fair CLR 51.8 42.8 72% 29.89 0.0
08 09:35 Vrbl 2 10.00 Fair CLR 51.8 42.8 72% 29.89 0.0
08 09:15 Vrbl 2 10.00 Fair CLR 50 41 71% 29.89 0.0
08 08:55 NW 2 10.00 Fair CLR 50 42.8 76% 29.89 0.0
08 08:35 Vrbl 2 10.00 Fair CLR 50 42.8 76% 29.89 0.0
08 08:15 W 5 10.00 Fair CLR 48.2 42.8 82% 47 29.89 0.0
08 07:55 W 5 10.00 Fair CLR 46.4 42.8 46.9 41.9 87% 45 29.88 0.0
08 07:35 SW 5 10.00 Partly Cloudy SCT100 44.6 42.8 93% 43 29.88 0.0
08 07:15 W 5 10.00 Overcast OVC100 42.8 41 93% 41 29.87 0.0
08 06:55 W 5 10.00 Overcast OVC100 42.8 41 93% 41 29.86 0.0
08 06:35 SW 5 10.00 Overcast OVC100 42.8 41 93% 41 29.86 0.0
08 06:15 SW 3 10.00 Overcast FEW065 OVC100 42.8 41 93% 29.86 0.0
08 05:55 W 1 10.00 Mostly Cloudy SCT065 BKN110 42.8 41 93% 29.86 0.0
08 05:35 NW 3 10.00 Partly Cloudy SCT110 44.6 41 87% 29.86 0.0
08 05:15 NW 3 10.00 Fair CLR 44.6 41 87% 29.86 0.0
08 04:55 W 5 10.00 Partly Cloudy FEW080 FEW095 SCT110 44.6 41 87% 43 29.86 0.0
08 04:35 NW 3 10.00 Overcast SCT070 OVC095 46.4 41 82% 29.86 0.0
08 04:15 W 7 10.00 Overcast SCT070 SCT085 OVC095 46.4 41 82% 43 29.86 0.0
08 03:55 W 7 10.00 Overcast FEW049 FEW070 OVC080 46.4 41 82% 43 29.87 0.0
08 03:35 W 5 10.00 Overcast SCT049 OVC090 46.4 39.2 76% 45 29.87 0.0
08 03:15 W 6 10.00 Mostly Cloudy FEW049 BKN100 46.4 39.2 76% 44 29.87 0.0
08 02:55 W 6 10.00 Partly Cloudy SCT090 46.4 39.2 76% 44 29.87 0.0
08 02:35 Vrbl 3 10.00 Overcast OVC090 46.4 39.2 76% 29.87 0.0
08 02:15 SW 2 10.00 Overcast OVC090 46.4 39.2 76% 29.87 0.0
08 01:55 SW 2 10.00 Mostly Cloudy BKN090 46.4 39.2 54 46.8 76% 29.88 0.0
08 01:35 W 2 10.00 A Few Clouds FEW090 46.4 37.4 71% 29.88 0.0
08 01:15 W 2 10.00 Fair CLR 48.2 37.4 66% 29.88 0.0
08 00:55 Vrbl 5 10.00 Fair CLR 48.2 37.4 66% 47 29.88 0.0
08 00:35 SW 7 10.00 Fair CLR 48.2 39.2 71% 46 29.88 0.0
08 00:15 SW 7 10.00 Fair CLR 48.2 37.4 66% 46 29.88 0.0
07 23:55 SW 7 10.00 Partly Cloudy SCT048 50 37.4 62% 48 29.88 0.0
07 23:35 W 7 10.00 Overcast BKN048 OVC070 50 37.4 62% 48 29.89 0.0
07 23:15 W 7 10.00 Overcast BKN060 OVC075 51.8 37.4 58% 29.89 0.0
07 22:55 W 7 G 16 10.00 Overcast OVC060 51.8 35.6 54% 29.89 0.0
07 22:35 SW 6 10.00 Overcast OVC060 51.8 35.6 54% 29.89 0.0
07 22:15 W 8 10.00 Mostly Cloudy BKN060 51.8 33.8 50% 29.89 0.0
07 21:55 SW 14 G 18 10.00 Overcast OVC070 51.8 33.8 50% 29.89 0.0
07 21:35 SW 2 10.00 Overcast BKN070 BKN100 OVC120 50 33.8 54% 29.87 0.0
07 21:15 SW 2 10.00 Mostly Cloudy BKN110 50 32 50% 29.86 0.0
07 20:55 SW 2 10.00 Partly Cloudy SCT080 51.8 30.2 44% 29.86 0.0
07 20:35 W 2 10.00 Partly Cloudy SCT080 51.8 30.2 44% 29.86 0.0
07 20:15 W 3 10.00 Mostly Cloudy BKN090 51.8 30.2 44% 29.86 0.0
07 19:55 W 6 10.00 Mostly Cloudy BKN090 BKN110 53.6 30.2 58.3 53.4 41% 29.86 0.0
07 19:35 W 9 10.00 A Few Clouds FEW100 53.6 30.2 41% 29.86 0.0
07 19:15 NW 8 10.00 A Few Clouds FEW070 FEW090 55.4 30.2 38% 29.86 0.0
07 18:55 W 12 10.00 A Few Clouds FEW080 FEW090 55.4 28.4 36% 29.86 0.0
07 18:35 W 10 G 20 10.00 Partly Cloudy SCT080 55.4 28.4 36% 29.87 0.0
07 18:15 W 12 G 20 10.00 A Few Clouds FEW090 55.4 28.4 36% 29.87 0.0
07 17:55 W 10 10.00 Partly Cloudy SCT080 57.2 32 39% 29.87 0.0
07 17:35 NW 12 G 16 10.00 Mostly Cloudy BKN080 BKN090 57.2 30.2 36% 29.86 0.0
07 17:15 NW 15 G 21 10.00 Mostly Cloudy SCT070 BKN090 55.4 28.4 36% 29.87 0.0
07 16:55 NW 17 G 24 10.00 Mostly Cloudy SCT070 BKN085 57.2 30.2 36% 29.87 0.0
07 16:35 W 13 G 28 10.00 Overcast BKN070 OVC095 55.4 28.4 36% 29.87 0.0
07 16:15 W 17 G 25 10.00 Mostly Cloudy SCT070 BKN095 55.4 30.2 38% 29.87 0.0
Date Time (edt) Wind (mph) Vis. (mi.) Weather Sky Cond. Air Dwpt Max. Min. Relative Humidity Wind Chill (°F) Heat Index (°F) altimeter (in) sea level (mb) 1 hr 3 hr 6 hr
6 hour
Temperature (ºF) Pressure Precipitation (in)